sensor_id;sensor_type;location;lat;lon;timestamp;pressure;altitude;pressure_sealevel;temperature;humidity
23059;BME280;30585;51.502;7.218;2022-10-18T00:00:52;153846.94;;;14.52;100.00
23059;BME280;30585;51.502;7.218;2022-10-18T00:03:20;153846.94;;;14.52;100.00
23059;BME280;30585;51.502;7.218;2022-10-18T00:05:48;153830.09;;;14.45;100.00
23059;BME280;30585;51.502;7.218;2022-10-18T00:08:17;153831.34;;;14.45;100.00
23059;BME280;30585;51.502;7.218;2022-10-18T00:10:47;153817.09;;;14.40;100.00
23059;BME280;30585;51.502;7.218;2022-10-18T00:13:15;153815.81;;;14.39;100.00
23059;BME280;30585;51.502;7.218;2022-10-18T00:15:47;153826.16;;;14.43;100.00
23059;BME280;30585;51.502;7.218;2022-10-18T00:18:15;153804.16;;;14.34;100.00
23059;BME280;30585;51.502;7.218;2022-10-18T00:20:43;153780.84;;;14.25;100.00
23059;BME280;30585;51.502;7.218;2022-10-18T00:23:11;153780.84;;;14.25;100.00
23059;BME280;30585;51.502;7.218;2022-10-18T00:25:39;153819.69;;;14.41;100.00
23059;BME280;30585;51.502;7.218;2022-10-18T00:28:08;153778.25;;;14.24;100.00
23059;BME280;30585;51.502;7.218;2022-10-18T00:30:36;153815.81;;;14.39;100.00
23059;BME280;30585;51.502;7.218;2022-10-18T00:33:04;153795.09;;;14.31;100.00
23059;BME280;30585;51.502;7.218;2022-10-18T00:35:33;153795.09;;;14.31;100.00
23059;BME280;30585;51.502;7.218;2022-10-18T00:38:01;153802.84;;;14.34;100.00
23059;BME280;30585;51.502;7.218;2022-10-18T00:40:29;153810.63;;;14.37;100.00
23059;BME280;30585;51.502;7.218;2022-10-18T00:42:57;153821.03;;;14.41;100.00
23059;BME280;30585;51.502;7.218;2022-10-18T00:45:26;153798.97;;;14.32;100.00
23059;BME280;30585;51.502;7.218;2022-10-18T00:47:57;153810.63;;;14.37;100.00
23059;BME280;30585;51.502;7.218;2022-10-18T00:50:28;153800.28;;;14.33;100.00
23059;BME280;30585;51.502;7.218;2022-10-18T00:52:59;153821.03;;;14.41;100.00
23059;BME280;30585;51.502;7.218;2022-10-18T00:55:30;153764.00;;;14.18;100.00
23059;BME280;30585;51.502;7.218;2022-10-18T00:57:59;153789.91;;;14.29;100.00
23059;BME280;30585;51.502;7.218;2022-10-18T01:00:28;153787.31;;;14.28;100.00
23059;BME280;30585;51.502;7.218;2022-10-18T01:02:57;153751.06;;;14.13;100.00
23059;BME280;30585;51.502;7.218;2022-10-18T01:05:25;153810.63;;;14.37;100.00
23059;BME280;30585;51.502;7.218;2022-10-18T01:11:03;153824.88;;;14.43;100.00
23059;BME280;30585;51.502;7.218;2022-10-18T01:13:40;153818.41;;;14.40;100.00
23059;BME280;30585;51.502;7.218;2022-10-18T01:16:20;153800.28;;;14.33;100.00
23059;BME280;30585;51.502;7.218;2022-10-18T01:18:54;153791.19;;;14.29;100.00
23059;BME280;30585;51.502;7.218;2022-10-18T01:21:33;153801.56;;;14.33;100.00
23059;BME280;30585;51.502;7.218;2022-10-18T01:24:38;153784.72;;;14.27;100.00
23059;BME280;30585;51.502;7.218;2022-10-18T01:27:23;153804.16;;;14.34;100.00
23059;BME280;30585;51.502;7.218;2022-10-18T01:33:01;153787.31;;;14.28;100.00
23059;BME280;30585;51.502;7.218;2022-10-18T01:35:33;153789.91;;;14.29;100.00
23059;BME280;30585;51.502;7.218;2022-10-18T01:38:05;153789.91;;;14.29;100.00
23059;BME280;30585;51.502;7.218;2022-10-18T01:40:38;153775.66;;;14.23;100.00
23059;BME280;30585;51.502;7.218;2022-10-18T01:43:09;153795.09;;;14.31;100.00
23059;BME280;30585;51.502;7.218;2022-10-18T01:45:39;153802.84;;;14.34;100.00
23059;BME280;30585;51.502;7.218;2022-10-18T01:48:09;153782.13;;;14.26;100.00
23059;BME280;30585;51.502;7.218;2022-10-18T01:50:38;153758.78;;;14.16;100.00
23059;BME280;30585;51.502;7.218;2022-10-18T01:53:20;153774.38;;;14.23;100.00
23059;BME280;30585;51.502;7.218;2022-10-18T01:55:54;153748.47;;;14.12;100.00
23059;BME280;30585;51.502;7.218;2022-10-18T01:58:30;153741.94;;;14.10;100.00
23059;BME280;30585;51.502;7.218;2022-10-18T02:01:05;153722.53;;;14.02;100.00
23059;BME280;30585;51.502;7.218;2022-10-18T02:03:39;153736.81;;;14.08;100.00
23059;BME280;30585;51.502;7.218;2022-10-18T02:06:17;153700.50;;;13.93;100.00
23059;BME280;30585;51.502;7.218;2022-10-18T02:08:49;153681.06;;;13.85;100.00
23059;BME280;30585;51.502;7.218;2022-10-18T02:11:19;153709.56;;;13.97;100.00
23059;BME280;30585;51.502;7.218;2022-10-18T02:13:51;153743.28;;;14.10;100.00
23059;BME280;30585;51.502;7.218;2022-10-18T02:16:22;153751.06;;;14.13;100.00
23059;BME280;30585;51.502;7.218;2022-10-18T02:18:56;153753.59;;;14.14;100.00
23059;BME280;30585;51.502;7.218;2022-10-18T02:21:27;153778.25;;;14.24;100.00
23059;BME280;30585;51.502;7.218;2022-10-18T02:23:57;153765.25;;;14.19;100.00
23059;BME280;30585;51.502;7.218;2022-10-18T02:26:26;153764.00;;;14.18;100.00
23059;BME280;30585;51.502;7.218;2022-10-18T02:28:54;153754.94;;;14.15;100.00
23059;BME280;30585;51.502;7.218;2022-10-18T02:31:25;153774.38;;;14.23;100.00
23059;BME280;30585;51.502;7.218;2022-10-18T02:33:57;153771.78;;;14.22;100.00
23059;BME280;30585;51.502;7.218;2022-10-18T02:36:30;153754.94;;;14.15;100.00
23059;BME280;30585;51.502;7.218;2022-10-18T02:39:03;153773.06;;;14.22;100.00
23059;BME280;30585;51.502;7.218;2022-10-18T02:41:32;153762.72;;;14.18;100.00
23059;BME280;30585;51.502;7.218;2022-10-18T02:44:00;153751.06;;;14.13;100.00
23059;BME280;30585;51.502;7.218;2022-10-18T02:46:28;153745.88;;;14.11;100.00
23059;BME280;30585;51.502;7.218;2022-10-18T02:48:57;153756.19;;;14.15;100.00
23059;BME280;30585;51.502;7.218;2022-10-18T02:51:24;153758.78;;;14.16;100.00
23059;BME280;30585;51.502;7.218;2022-10-18T02:53:52;153760.13;;;14.17;100.00
23059;BME280;30585;51.502;7.218;2022-10-18T02:56:20;153773.06;;;14.22;100.00
23059;BME280;30585;51.502;7.218;2022-10-18T02:58:48;153748.47;;;14.12;100.00
23059;BME280;30585;51.502;7.218;2022-10-18T03:01:15;153735.47;;;14.07;100.00
23059;BME280;30585;51.502;7.218;2022-10-18T03:03:43;153754.94;;;14.15;100.00
23059;BME280;30585;51.502;7.218;2022-10-18T03:06:12;153761.38;;;14.17;100.00
23059;BME280;30585;51.502;7.218;2022-10-18T03:08:40;153766.59;;;14.20;100.00
23059;BME280;30585;51.502;7.218;2022-10-18T03:11:08;153754.94;;;14.15;100.00
23059;BME280;30585;51.502;7.218;2022-10-18T03:13:35;153762.72;;;14.18;100.00
23059;BME280;30585;51.502;7.218;2022-10-18T03:16:04;153764.00;;;14.18;100.00
23059;BME280;30585;51.502;7.218;2022-10-18T03:18:32;153762.72;;;14.18;100.00
23059;BME280;30585;51.502;7.218;2022-10-18T03:21:03;153776.91;;;14.24;100.00
23059;BME280;30585;51.502;7.218;2022-10-18T03:23:32;153764.00;;;14.18;100.00
23059;BME280;30585;51.502;7.218;2022-10-18T03:26:00;153764.00;;;14.18;100.00
23059;BME280;30585;51.502;7.218;2022-10-18T03:28:28;153730.28;;;14.05;100.00
23059;BME280;30585;51.502;7.218;2022-10-18T03:30:58;153760.13;;;14.17;100.00
23059;BME280;30585;51.502;7.218;2022-10-18T03:33:26;153749.72;;;14.13;100.00
23059;BME280;30585;51.502;7.218;2022-10-18T03:35:54;153764.00;;;14.18;100.00
23059;BME280;30585;51.502;7.218;2022-10-18T03:38:22;153779.53;;;14.25;100.00
23059;BME280;30585;51.502;7.218;2022-10-18T03:40:51;153754.94;;;14.15;100.00
23059;BME280;30585;51.502;7.218;2022-10-18T03:43:19;153779.53;;;14.25;100.00
23059;BME280;30585;51.502;7.218;2022-10-18T03:45:47;153770.47;;;14.21;100.00
23059;BME280;30585;51.502;7.218;2022-10-18T03:48:15;153778.25;;;14.24;100.00
23059;BME280;30585;51.502;7.218;2022-10-18T03:50:42;153779.53;;;14.25;100.00
23059;BME280;30585;51.502;7.218;2022-10-18T03:53:10;153788.59;;;14.28;100.00
23059;BME280;30585;51.502;7.218;2022-10-18T03:55:38;153779.53;;;14.25;100.00
23059;BME280;30585;51.502;7.218;2022-10-18T03:58:07;153778.25;;;14.24;100.00
23059;BME280;30585;51.502;7.218;2022-10-18T04:00:35;153774.38;;;14.23;100.00
23059;BME280;30585;51.502;7.218;2022-10-18T04:03:03;153769.19;;;14.21;100.00
23059;BME280;30585;51.502;7.218;2022-10-18T04:05:31;153771.78;;;14.22;100.00
23059;BME280;30585;51.502;7.218;2022-10-18T04:07:59;153764.00;;;14.18;100.00
23059;BME280;30585;51.502;7.218;2022-10-18T04:10:28;153764.00;;;14.18;100.00
23059;BME280;30585;51.502;7.218;2022-10-18T04:12:55;153766.59;;;14.20;100.00
23059;BME280;30585;51.502;7.218;2022-10-18T04:15:24;153786.03;;;14.27;100.00
23059;BME280;30585;51.502;7.218;2022-10-18T04:17:52;153762.72;;;14.18;100.00
23059;BME280;30585;51.502;7.218;2022-10-18T04:20:20;153774.38;;;14.23;100.00
23059;BME280;30585;51.502;7.218;2022-10-18T04:22:48;153764.00;;;14.18;100.00
23059;BME280;30585;51.502;7.218;2022-10-18T04:25:16;153770.47;;;14.21;100.00
23059;BME280;30585;51.502;7.218;2022-10-18T04:27:43;153769.19;;;14.21;100.00
23059;BME280;30585;51.502;7.218;2022-10-18T04:30:11;153766.59;;;14.20;100.00
23059;BME280;30585;51.502;7.218;2022-10-18T04:32:40;153762.72;;;14.18;100.00
23059;BME280;30585;51.502;7.218;2022-10-18T04:35:08;153736.81;;;14.08;100.00
23059;BME280;30585;51.502;7.218;2022-10-18T04:37:36;153776.91;;;14.24;100.00
23059;BME280;30585;51.502;7.218;2022-10-18T04:40:05;153753.59;;;14.14;100.00
23059;BME280;30585;51.502;7.218;2022-10-18T04:42:33;153751.06;;;14.13;100.00
23059;BME280;30585;51.502;7.218;2022-10-18T04:45:01;153748.47;;;14.12;100.00
23059;BME280;30585;51.502;7.218;2022-10-18T04:47:29;153762.72;;;14.18;100.00
23059;BME280;30585;51.502;7.218;2022-10-18T04:49:58;153752.31;;;14.14;100.00
23059;BME280;30585;51.502;7.218;2022-10-18T04:52:26;153756.19;;;14.15;100.00
23059;BME280;30585;51.502;7.218;2022-10-18T04:54:54;153736.81;;;14.08;100.00
23059;BME280;30585;51.502;7.218;2022-10-18T04:57:22;153727.75;;;14.04;100.00
23059;BME280;30585;51.502;7.218;2022-10-18T04:59:49;153735.47;;;14.07;100.00
23059;BME280;30585;51.502;7.218;2022-10-18T05:02:17;153761.38;;;14.17;100.00
23059;BME280;30585;51.502;7.218;2022-10-18T05:04:45;153769.19;;;14.21;100.00
23059;BME280;30585;51.502;7.218;2022-10-18T05:07:14;153743.28;;;14.10;100.00
23059;BME280;30585;51.502;7.218;2022-10-18T05:09:42;153766.59;;;14.20;100.00
23059;BME280;30585;51.502;7.218;2022-10-18T05:12:10;153730.28;;;14.05;100.00
23059;BME280;30585;51.502;7.218;2022-10-18T05:14:37;153766.59;;;14.20;100.00
23059;BME280;30585;51.502;7.218;2022-10-18T05:17:05;153774.38;;;14.23;100.00
23059;BME280;30585;51.502;7.218;2022-10-18T05:19:33;153775.66;;;14.23;100.00
23059;BME280;30585;51.502;7.218;2022-10-18T05:22:01;153775.66;;;14.23;100.00
23059;BME280;30585;51.502;7.218;2022-10-18T05:24:30;153771.78;;;14.22;100.00
23059;BME280;30585;51.502;7.218;2022-10-18T05:26:57;153776.91;;;14.24;100.00
23059;BME280;30585;51.502;7.218;2022-10-18T05:29:25;153780.84;;;14.25;100.00
23059;BME280;30585;51.502;7.218;2022-10-18T05:31:58;153770.47;;;14.21;100.00
23059;BME280;30585;51.502;7.218;2022-10-18T05:34:26;153787.31;;;14.28;100.00
23059;BME280;30585;51.502;7.218;2022-10-18T05:36:57;153784.72;;;14.27;100.00
23059;BME280;30585;51.502;7.218;2022-10-18T05:39:25;153776.91;;;14.24;100.00
23059;BME280;30585;51.502;7.218;2022-10-18T05:41:54;153758.78;;;14.16;100.00
23059;BME280;30585;51.502;7.218;2022-10-18T05:44:23;153752.31;;;14.14;100.00
23059;BME280;30585;51.502;7.218;2022-10-18T05:46:51;153751.06;;;14.13;100.00
23059;BME280;30585;51.502;7.218;2022-10-18T05:49:19;153752.31;;;14.14;100.00
23059;BME280;30585;51.502;7.218;2022-10-18T05:51:47;153749.72;;;14.13;100.00
23059;BME280;30585;51.502;7.218;2022-10-18T05:54:14;153736.81;;;14.08;100.00
23059;BME280;30585;51.502;7.218;2022-10-18T05:59:26;153739.41;;;14.09;100.00
23059;BME280;30585;51.502;7.218;2022-10-18T06:01:54;153740.66;;;14.09;100.00
23059;BME280;30585;51.502;7.218;2022-10-18T06:04:22;153714.75;;;13.99;100.00
23059;BME280;30585;51.502;7.218;2022-10-18T06:06:50;153712.16;;;13.98;100.00
23059;BME280;30585;51.502;7.218;2022-10-18T06:09:17;153692.72;;;13.90;100.00
23059;BME280;30585;51.502;7.218;2022-10-18T06:11:45;153697.91;;;13.92;100.00
23059;BME280;30585;51.502;7.218;2022-10-18T06:14:13;153710.88;;;13.97;100.00
23059;BME280;30585;51.502;7.218;2022-10-18T06:16:42;153684.97;;;13.87;100.00
23059;BME280;30585;51.502;7.218;2022-10-18T06:19:09;153735.47;;;14.07;100.00
23059;BME280;30585;51.502;7.218;2022-10-18T06:21:37;153717.34;;;14.00;100.00
23059;BME280;30585;51.502;7.218;2022-10-18T06:24:05;153684.97;;;13.87;100.00
23059;BME280;30585;51.502;7.218;2022-10-18T06:26:33;153729.00;;;14.05;100.00
23059;BME280;30585;51.502;7.218;2022-10-18T06:29:01;153709.56;;;13.97;100.00
23059;BME280;30585;51.502;7.218;2022-10-18T06:31:28;153682.38;;;13.86;100.00
23059;BME280;30585;51.502;7.218;2022-10-18T06:33:58;153730.28;;;14.05;100.00
23059;BME280;30585;51.502;7.218;2022-10-18T06:36:26;153719.94;;;14.01;100.00
23059;BME280;30585;51.502;7.218;2022-10-18T06:38:54;153738.06;;;14.08;100.00
23059;BME280;30585;51.502;7.218;2022-10-18T06:41:22;153754.94;;;14.15;100.00
23059;BME280;30585;51.502;7.218;2022-10-18T06:43:52;153774.38;;;14.23;100.00
23059;BME280;30585;51.502;7.218;2022-10-18T06:46:22;153770.47;;;14.21;100.00
23059;BME280;30585;51.502;7.218;2022-10-18T06:48:50;153756.19;;;14.15;100.00
23059;BME280;30585;51.502;7.218;2022-10-18T06:51:19;153761.38;;;14.17;100.00
23059;BME280;30585;51.502;7.218;2022-10-18T06:53:46;153705.69;;;13.95;100.00
23059;BME280;30585;51.502;7.218;2022-10-18T06:56:34;153764.00;;;14.18;100.00
23059;BME280;30585;51.502;7.218;2022-10-18T06:59:03;153764.00;;;14.18;100.00
23059;BME280;30585;51.502;7.218;2022-10-18T07:01:31;153766.59;;;14.20;100.00
23059;BME280;30585;51.502;7.218;2022-10-18T07:03:59;153775.66;;;14.23;100.00
23059;BME280;30585;51.502;7.218;2022-10-18T07:06:28;153774.38;;;14.23;100.00
23059;BME280;30585;51.502;7.218;2022-10-18T07:08:55;153782.13;;;14.26;100.00
23059;BME280;30585;51.502;7.218;2022-10-18T07:11:25;153791.19;;;14.29;100.00
23059;BME280;30585;51.502;7.218;2022-10-18T07:13:57;153793.78;;;14.30;100.00
23059;BME280;30585;51.502;7.218;2022-10-18T07:16:28;153774.38;;;14.23;100.00
23059;BME280;30585;51.502;7.218;2022-10-18T07:18:56;153797.69;;;14.32;100.00
23059;BME280;30585;51.502;7.218;2022-10-18T07:21:25;153821.03;;;14.41;100.00
23059;BME280;30585;51.502;7.218;2022-10-18T07:23:55;153832.69;;;14.46;100.00
23059;BME280;30585;51.502;7.218;2022-10-18T07:26:24;153859.88;;;14.57;100.00
23059;BME280;30585;51.502;7.218;2022-10-18T07:28:55;153854.69;;;14.55;100.00
23059;BME280;30585;51.502;7.218;2022-10-18T07:31:25;153826.16;;;14.43;100.00
23059;BME280;30585;51.502;7.218;2022-10-18T07:33:53;153849.50;;;14.53;100.00
23059;BME280;30585;51.502;7.218;2022-10-18T07:36:21;153849.50;;;14.53;100.00
23059;BME280;30585;51.502;7.218;2022-10-18T07:38:50;153856.00;;;14.55;100.00
23059;BME280;30585;51.502;7.218;2022-10-18T07:41:19;153859.88;;;14.57;100.00
23059;BME280;30585;51.502;7.218;2022-10-18T07:43:48;153808.03;;;14.36;100.00
23059;BME280;30585;51.502;7.218;2022-10-18T07:46:17;153846.94;;;14.52;100.00
23059;BME280;30585;51.502;7.218;2022-10-18T07:48:46;153852.09;;;14.54;100.00
23059;BME280;30585;51.502;7.218;2022-10-18T07:51:14;153866.34;;;14.59;100.00
23059;BME280;30585;51.502;7.218;2022-10-18T07:53:42;153900.13;;;14.73;100.00
23059;BME280;30585;51.502;7.218;2022-10-18T07:56:12;153901.38;;;14.73;100.00
23059;BME280;30585;51.502;7.218;2022-10-18T07:58:44;153929.91;;;14.85;100.00
23059;BME280;30585;51.502;7.218;2022-10-18T08:01:13;153948.03;;;14.92;100.00
23059;BME280;30585;51.502;7.218;2022-10-18T08:03:42;153971.38;;;15.01;100.00
23059;BME280;30585;51.502;7.218;2022-10-18T08:06:11;153989.56;;;15.08;100.00
23059;BME280;30585;51.502;7.218;2022-10-18T08:08:40;153983.03;;;15.06;100.00
23059;BME280;30585;51.502;7.218;2022-10-18T08:11:10;153972.69;;;15.02;100.00
23059;BME280;30585;51.502;7.218;2022-10-18T08:13:38;153980.50;;;15.05;100.00
23059;BME280;30585;51.502;7.218;2022-10-18T08:16:09;153977.91;;;15.04;100.00
23059;BME280;30585;51.502;7.218;2022-10-18T08:18:38;153984.38;;;15.06;100.00
23059;BME280;30585;51.502;7.218;2022-10-18T08:21:07;153932.50;;;14.86;100.00
23059;BME280;30585;51.502;7.218;2022-10-18T08:23:36;153984.38;;;15.06;100.00
23059;BME280;30585;51.502;7.218;2022-10-18T08:26:06;153986.97;;;15.07;100.00
23059;BME280;30585;51.502;7.218;2022-10-18T08:28:34;153958.44;;;14.96;100.00
23059;BME280;30585;51.502;7.218;2022-10-18T08:31:03;153977.91;;;15.04;100.00
23059;BME280;30585;51.502;7.218;2022-10-18T08:33:33;153946.78;;;14.91;100.00
23059;BME280;30585;51.502;7.218;2022-10-18T08:36:03;153986.97;;;15.07;100.00
23059;BME280;30585;51.502;7.218;2022-10-18T08:38:32;153993.44;;;15.10;100.00
23059;BME280;30585;51.502;7.218;2022-10-18T08:41:05;153950.66;;;14.93;100.00
23059;BME280;30585;51.502;7.218;2022-10-18T08:43:46;153961.03;;;14.97;100.00
23059;BME280;30585;51.502;7.218;2022-10-18T08:46:17;153976.56;;;15.03;100.00
23059;BME280;30585;51.502;7.218;2022-10-18T08:48:49;153942.91;;;14.90;100.00
23059;BME280;30585;51.502;7.218;2022-10-18T08:51:26;153971.38;;;15.01;100.00
23059;BME280;30585;51.502;7.218;2022-10-18T08:54:01;153993.44;;;15.10;100.00
23059;BME280;30585;51.502;7.218;2022-10-18T08:56:32;153996.03;;;15.11;100.00
23059;BME280;30585;51.502;7.218;2022-10-18T08:59:01;153942.91;;;14.90;100.00
23059;BME280;30585;51.502;7.218;2022-10-18T09:01:37;153985.63;;;15.07;100.00
23059;BME280;30585;51.502;7.218;2022-10-18T09:04:20;153983.03;;;15.06;100.00
23059;BME280;30585;51.502;7.218;2022-10-18T09:07:01;153986.97;;;15.07;100.00
23059;BME280;30585;51.502;7.218;2022-10-18T09:09:41;153983.03;;;15.06;100.00
23059;BME280;30585;51.502;7.218;2022-10-18T09:12:27;154001.22;;;15.13;100.00
23059;BME280;30585;51.502;7.218;2022-10-18T09:15:15;154036.25;;;15.27;100.00
23059;BME280;30585;51.502;7.218;2022-10-18T09:17:53;154049.19;;;15.32;100.00
23059;BME280;30585;51.502;7.218;2022-10-18T09:20:27;154051.78;;;15.33;100.00
23059;BME280;30585;51.502;7.218;2022-10-18T09:23:05;154040.09;;;15.29;100.00
23059;BME280;30585;51.502;7.218;2022-10-18T09:25:44;154060.84;;;15.37;100.00
23059;BME280;30585;51.502;7.218;2022-10-18T09:28:22;154062.16;;;15.37;100.00
23059;BME280;30585;51.502;7.218;2022-10-18T09:30:58;154064.78;;;15.38;100.00
23059;BME280;30585;51.502;7.218;2022-10-18T09:33:37;154073.84;;;15.42;100.00
23059;BME280;30585;51.502;7.218;2022-10-18T09:36:10;154067.31;;;15.39;100.00
23059;BME280;30585;51.502;7.218;2022-10-18T09:38:42;154049.19;;;15.32;100.00
23059;BME280;30585;51.502;7.218;2022-10-18T09:41:15;154058.25;;;15.36;100.00
23059;BME280;30585;51.502;7.218;2022-10-18T09:43:49;154051.78;;;15.33;100.00
23059;BME280;30585;51.502;7.218;2022-10-18T09:46:20;154056.97;;;15.35;100.00
23059;BME280;30585;51.502;7.218;2022-10-18T09:48:55;154068.66;;;15.40;100.00
23059;BME280;30585;51.502;7.218;2022-10-18T09:51:29;154081.59;;;15.45;100.00
23059;BME280;30585;51.502;7.218;2022-10-18T09:54:13;154067.31;;;15.39;100.00
23059;BME280;30585;51.502;7.218;2022-10-18T09:56:47;154101.06;;;15.53;100.00
23059;BME280;30585;51.502;7.218;2022-10-18T09:59:35;154165.88;;;15.79;100.00
23059;BME280;30585;51.502;7.218;2022-10-18T10:02:05;154189.28;;;15.88;100.00
23059;BME280;30585;51.502;7.218;2022-10-18T10:04:32;154171.09;;;15.81;100.00
23059;BME280;30585;51.502;7.218;2022-10-18T10:07:06;154213.94;;;15.98;100.00
23059;BME280;30585;51.502;7.218;2022-10-18T10:09:38;154207.47;;;15.95;100.00
23059;BME280;30585;51.502;7.218;2022-10-18T10:12:24;154228.22;;;16.03;100.00
23059;BME280;30585;51.502;7.218;2022-10-18T10:14:52;154251.56;;;16.13;100.00
23059;BME280;30585;51.502;7.218;2022-10-18T10:17:22;154272.31;;;16.21;100.00
23059;BME280;30585;51.502;7.218;2022-10-18T10:19:59;154259.31;;;16.16;100.00
23059;BME280;30585;51.502;7.218;2022-10-18T10:22:34;154261.91;;;16.17;100.00
23059;BME280;30585;51.502;7.218;2022-10-18T10:25:03;154247.66;;;16.11;100.00
23059;BME280;30585;51.502;7.218;2022-10-18T10:27:33;154272.31;;;16.21;100.00
23059;BME280;30585;51.502;7.218;2022-10-18T10:30:21;154241.16;;;16.09;100.00
23059;BME280;30585;51.502;7.218;2022-10-18T10:32:50;154254.16;;;16.14;100.00
23059;BME280;30585;51.502;7.218;2022-10-18T10:35:21;154299.53;;;16.32;100.00
23059;BME280;30585;51.502;7.218;2022-10-18T10:38:21;154282.72;;;16.25;100.00
23059;BME280;30585;51.502;7.218;2022-10-18T10:40:49;154263.25;;;16.17;100.00
23059;BME280;30585;51.502;7.218;2022-10-18T10:43:21;154298.28;;;16.31;100.00
23059;BME280;30585;51.502;7.218;2022-10-18T10:46:05;154241.16;;;16.09;100.00
23059;BME280;30585;51.502;7.218;2022-10-18T10:48:41;154248.97;;;16.12;100.00
23059;BME280;30585;51.502;7.218;2022-10-18T10:51:13;154300.88;;;16.32;100.00
23059;BME280;30585;51.502;7.218;2022-10-18T10:53:47;154303.47;;;16.33;100.00
23059;BME280;30585;51.502;7.218;2022-10-18T10:56:22;154320.31;;;16.40;100.00
23059;BME280;30585;51.502;7.218;2022-10-18T10:58:51;154308.63;;;16.35;100.00
23059;BME280;30585;51.502;7.218;2022-10-18T11:01:28;154347.59;;;16.51;100.00
23059;BME280;30585;51.502;7.218;2022-10-18T11:03:59;154411.19;;;16.76;100.00
23059;BME280;30585;51.502;7.218;2022-10-18T11:06:37;154448.81;;;16.91;100.00
23059;BME280;30585;51.502;7.218;2022-10-18T11:09:18;154474.84;;;17.02;100.00
23059;BME280;30585;51.502;7.218;2022-10-18T11:11:58;154493.00;;;17.09;100.00
23059;BME280;30585;51.502;7.218;2022-10-18T11:14:29;154511.16;;;17.16;100.00
23059;BME280;30585;51.502;7.218;2022-10-18T11:17:06;154537.13;;;17.26;100.00
23059;BME280;30585;51.502;7.218;2022-10-18T11:19:43;154508.56;;;17.15;100.00
23059;BME280;30585;51.502;7.218;2022-10-18T11:22:18;154646.16;;;17.70;100.00
23059;BME280;30585;51.502;7.218;2022-10-18T11:24:48;154621.50;;;17.60;100.00
23059;BME280;30585;51.502;7.218;2022-10-18T11:27:20;154609.84;;;17.55;100.00
23059;BME280;30585;51.502;7.218;2022-10-18T11:30:01;154565.69;;;17.38;100.00
23059;BME280;30585;51.502;7.218;2022-10-18T11:32:36;154526.72;;;17.22;100.00
23059;BME280;30585;51.502;7.218;2022-10-18T11:35:21;154551.41;;;17.32;100.00
23059;BME280;30585;51.502;7.218;2022-10-18T11:38:05;154529.31;;;17.23;100.00
23059;BME280;30585;51.502;7.218;2022-10-18T11:40:49;154476.09;;;17.02;100.00
23059;BME280;30585;51.502;7.218;2022-10-18T11:43:23;154585.19;;;17.46;100.00
23059;BME280;30585;51.502;7.218;2022-10-18T11:46:19;154608.56;;;17.55;100.00
23059;BME280;30585;51.502;7.218;2022-10-18T11:48:59;154600.75;;;17.52;100.00
23059;BME280;30585;51.502;7.218;2022-10-18T11:51:34;154739.78;;;18.07;100.00
23059;BME280;30585;51.502;7.218;2022-10-18T11:54:40;154790.41;;;18.27;100.00
23059;BME280;30585;51.502;7.218;2022-10-18T11:57:24;154737.16;;;18.06;100.00
23059;BME280;30585;51.502;7.218;2022-10-18T12:00:03;154842.38;;;18.48;100.00
23059;BME280;30585;51.502;7.218;2022-10-18T12:02:59;154798.22;;;18.30;100.00
23059;BME280;30585;51.502;7.218;2022-10-18T12:05:34;154705.94;;;17.94;100.00
23059;BME280;30585;51.502;7.218;2022-10-18T12:08:07;154708.53;;;17.95;100.00
23059;BME280;30585;51.502;7.218;2022-10-18T12:10:39;154857.97;;;18.54;100.00
23059;BME280;30585;51.502;7.218;2022-10-18T12:13:34;154922.97;;;18.80;100.00
23059;BME280;30585;51.502;7.218;2022-10-18T12:16:04;154947.63;;;18.90;100.00
23059;BME280;30585;51.502;7.218;2022-10-18T12:18:35;154874.84;;;18.61;100.00
23059;BME280;30585;51.502;7.218;2022-10-18T12:21:04;154815.13;;;18.37;100.00
23059;BME280;30585;51.502;7.218;2022-10-18T12:23:37;154830.69;;;18.43;100.00
23059;BME280;30585;51.502;7.218;2022-10-18T12:26:08;154831.97;;;18.44;100.00
23059;BME280;30585;51.502;7.218;2022-10-18T12:28:45;154799.50;;;18.31;100.00
23059;BME280;30585;51.502;7.218;2022-10-18T12:31:21;154747.53;;;18.10;100.00
23059;BME280;30585;51.502;7.218;2022-10-18T12:33:54;154718.94;;;17.99;100.00
23059;BME280;30585;51.502;7.218;2022-10-18T12:36:46;154718.94;;;17.99;100.00
23059;BME280;30585;51.502;7.218;2022-10-18T12:39:23;154741.03;;;18.08;100.00
23059;BME280;30585;51.502;7.218;2022-10-18T12:42:17;154811.19;;;18.35;100.00
23059;BME280;30585;51.502;7.218;2022-10-18T12:44:48;154847.59;;;18.50;98.47
23059;BME280;30585;51.502;7.218;2022-10-18T12:47:21;154885.28;;;18.65;98.87
23059;BME280;30585;51.502;7.218;2022-10-18T12:49:55;154976.28;;;19.01;100.00
23059;BME280;30585;51.502;7.218;2022-10-18T12:52:25;154932.03;;;18.83;93.20
23059;BME280;30585;51.502;7.218;2022-10-18T12:55:27;154950.22;;;18.91;94.64
23059;BME280;30585;51.502;7.218;2022-10-18T12:58:20;154907.34;;;18.74;89.85
23059;BME280;30585;51.502;7.218;2022-10-18T13:01:01;154942.41;;;18.88;92.50
23059;BME280;30585;51.502;7.218;2022-10-18T13:03:38;154856.69;;;18.53;86.85
23059;BME280;30585;51.502;7.218;2022-10-18T13:06:07;154920.34;;;18.79;94.75
23059;BME280;30585;51.502;7.218;2022-10-18T13:08:39;155010.03;;;19.14;92.23
23059;BME280;30585;51.502;7.218;2022-10-18T13:11:28;154993.19;;;19.08;90.52
23059;BME280;30585;51.502;7.218;2022-10-18T13:14:09;155089.38;;;19.46;92.37